Time;durP1;ratioP1;P1;durP2;ratioP2;P2;SDS_P1;SDS_P2;PMS_P1;PMS_P2;Temp;Humidity;BMP_temperature;BMP_pressure;BME280_temperature;BME280_humidity;BME280_pressure;Samples;Min_cycle;Max_cycle;Signal;HPM_P1;HPM_P2
2021/12/08 00:02:08;;;;;;;6.50;2.13;;;;;;;;;;5070754;28;20422;-57
2021/12/08 00:04:34;;;;;;;6.55;1.63;;;;;;;;;;5070936;28;20055;-57
2021/12/08 00:07:02;;;;;;;6.28;2.33;;;;;;;;;;5070630;28;20131;-57
2021/12/08 00:09:35;;;;;;;4.13;1.85;;;;;;;;;;5070114;28;20121;-58
2021/12/08 00:14:46;;;;;;;8.02;2.33;;;;;;;;;;5069545;28;20051;-57
2021/12/08 00:17:12;;;;;;;5.32;1.85;;;;;;;;;;5070084;28;20399;-57
2021/12/08 00:19:38;;;;;;;7.18;2.20;;;;;;;;;;5070798;28;20040;-57
2021/12/08 00:22:04;;;;;;;6.85;2.03;;;;;;;;;;5070784;28;20044;-57
2021/12/08 00:24:30;;;;;;;9.13;2.55;;;;;;;;;;5070328;28;20044;-57
2021/12/08 00:26:56;;;;;;;6.05;2.72;;;;;;;;;;5070745;28;20398;-58
2021/12/08 00:29:22;;;;;;;3.42;1.77;;;;;;;;;;5070454;28;20048;-57
2021/12/08 00:31:49;;;;;;;3.67;2.40;;;;;;;;;;5070511;28;20413;-57
2021/12/08 00:34:15;;;;;;;7.68;2.20;;;;;;;;;;5068834;28;20041;-58
2021/12/08 00:36:44;;;;;;;13.10;2.95;;;;;;;;;;5068972;28;20240;-58
2021/12/08 00:39:11;;;;;;;5.65;2.25;;;;;;;;;;5070616;28;20040;-57
2021/12/08 00:41:37;;;;;;;6.60;2.10;;;;;;;;;;5070075;28;20053;-57
2021/12/08 00:44:03;;;;;;;5.65;2.17;;;;;;;;;;5070417;28;20036;-58
2021/12/08 00:46:29;;;;;;;5.68;2.33;;;;;;;;;;5069698;28;20056;-58
2021/12/08 00:48:55;;;;;;;4.70;1.83;;;;;;;;;;5069890;28;20577;-58
2021/12/08 00:51:21;;;;;;;7.10;1.58;;;;;;;;;;5069595;28;20043;-57
2021/12/08 00:53:47;;;;;;;7.88;2.40;;;;;;;;;;5070027;28;20036;-57
2021/12/08 00:56:13;;;;;;;3.90;1.92;;;;;;;;;;5069694;28;20089;-58
2021/12/08 00:58:39;;;;;;;8.02;2.78;;;;;;;;;;5069917;28;20039;-57
2021/12/08 01:01:07;;;;;;;6.57;2.80;;;;;;;;;;5069571;28;20090;-57
2021/12/08 01:03:34;;;;;;;6.90;2.90;;;;;;;;;;5070065;28;20049;-57
2021/12/08 01:06:00;;;;;;;4.95;2.63;;;;;;;;;;5069974;28;20047;-58
2021/12/08 01:08:27;;;;;;;6.93;2.15;;;;;;;;;;5068918;28;20403;-58
2021/12/08 01:10:54;;;;;;;7.13;2.47;;;;;;;;;;5066887;28;20057;-58
2021/12/08 01:13:21;;;;;;;8.52;2.83;;;;;;;;;;5066939;28;20044;-57
2021/12/08 01:15:49;;;;;;;4.65;2.15;;;;;;;;;;5068525;28;20085;-57
2021/12/08 01:18:16;;;;;;;4.38;2.42;;;;;;;;;;5069379;28;20131;-58
2021/12/08 01:20:42;;;;;;;7.32;2.15;;;;;;;;;;5069649;28;20090;-56
2021/12/08 01:23:09;;;;;;;4.40;2.03;;;;;;;;;;5068686;28;20535;-58
2021/12/08 01:25:35;;;;;;;5.93;2.40;;;;;;;;;;5069925;28;20411;-58
2021/12/08 01:28:01;;;;;;;6.45;2.60;;;;;;;;;;5069510;28;20044;-56
2021/12/08 01:30:27;;;;;;;5.53;2.72;;;;;;;;;;5069485;28;20044;-57
2021/12/08 01:32:53;;;;;;;5.57;2.50;;;;;;;;;;5069603;28;20076;-57
2021/12/08 01:35:20;;;;;;;7.35;2.60;;;;;;;;;;5070229;28;20444;-58
2021/12/08 01:37:46;;;;;;;7.20;2.85;;;;;;;;;;5069173;28;20044;-57
2021/12/08 01:40:14;;;;;;;5.03;2.65;;;;;;;;;;5068844;28;20114;-57
2021/12/08 01:42:44;;;;;;;7.13;2.50;;;;;;;;;;5067766;28;20491;-57
2021/12/08 01:47:57;;;;;;;4.78;2.70;;;;;;;;;;5068396;28;20041;-58
2021/12/08 01:50:23;;;;;;;5.28;3.00;;;;;;;;;;5067903;28;20505;-57
2021/12/08 01:52:49;;;;;;;3.70;2.22;;;;;;;;;;5069373;28;20132;-56
2021/12/08 01:55:15;;;;;;;3.40;2.15;;;;;;;;;;5069334;28;20067;-57
2021/12/08 01:57:41;;;;;;;9.05;2.70;;;;;;;;;;5069460;28;20470;-57
2021/12/08 02:00:09;;;;;;;4.20;2.50;;;;;;;;;;5069351;28;20119;-57
2021/12/08 02:02:36;;;;;;;5.10;3.58;;;;;;;;;;5068905;28;20048;-58
2021/12/08 02:05:02;;;;;;;5.57;2.60;;;;;;;;;;5068493;28;20514;-57
2021/12/08 02:07:29;;;;;;;3.40;2.45;;;;;;;;;;5069088;28;20036;-57
2021/12/08 02:09:55;;;;;;;6.63;2.88;;;;;;;;;;5068357;28;20491;-57
2021/12/08 02:12:22;;;;;;;4.30;2.47;;;;;;;;;;5068381;28;20056;-57
2021/12/08 02:14:48;;;;;;;4.53;2.90;;;;;;;;;;5068980;28;20188;-57
2021/12/08 02:17:14;;;;;;;5.22;2.42;;;;;;;;;;5068073;28;20032;-57
2021/12/08 02:19:40;;;;;;;6.68;3.30;;;;;;;;;;5069489;28;20078;-57
2021/12/08 02:22:06;;;;;;;3.55;2.10;;;;;;;;;;5067863;28;20040;-57
2021/12/08 02:24:32;;;;;;;4.68;2.65;;;;;;;;;;5069462;28;20037;-57
2021/12/08 02:26:58;;;;;;;6.80;3.05;;;;;;;;;;5069057;28;20538;-58
2021/12/08 02:29:38;;;;;;;6.05;2.78;;;;;;;;;;5068754;28;20040;-57
2021/12/08 02:32:26;;;;;;;5.80;3.70;;;;;;;;;;5069284;28;20048;-57
2021/12/08 02:48:37;;;;;;;7.05;3.50;;;;;;;;;;5071864;28;20127;-57
2021/12/08 02:51:03;;;;;;;5.97;3.50;;;;;;;;;;5072633;28;20502;-57
2021/12/08 02:53:31;;;;;;;5.50;3.42;;;;;;;;;;5070721;28;20067;-58
2021/12/08 02:55:57;;;;;;;5.78;3.28;;;;;;;;;;5072967;28;20033;-58
2021/12/08 02:58:25;;;;;;;6.13;3.33;;;;;;;;;;5071842;28;20090;-57
2021/12/08 03:00:53;;;;;;;7.65;3.63;;;;;;;;;;5068030;28;20139;-57
2021/12/08 03:03:19;;;;;;;7.03;3.80;;;;;;;;;;5070383;28;20511;-57
2021/12/08 03:05:45;;;;;;;4.63;3.47;;;;;;;;;;5072347;28;20131;-57
2021/12/08 03:08:12;;;;;;;6.72;3.92;;;;;;;;;;5072357;28;20136;-57
2021/12/08 03:10:42;;;;;;;7.97;3.65;;;;;;;;;;5072214;28;20407;-57
2021/12/08 03:13:08;;;;;;;6.32;2.58;;;;;;;;;;5071963;28;20522;-58
2021/12/08 03:15:35;;;;;;;6.82;3.22;;;;;;;;;;5071798;28;20128;-58
2021/12/08 03:18:01;;;;;;;9.32;3.78;;;;;;;;;;5071023;28;20036;-57
2021/12/08 03:20:51;;;;;;;6.68;3.65;;;;;;;;;;5071919;28;20376;-58
2021/12/08 03:23:18;;;;;;;6.78;3.28;;;;;;;;;;5071506;28;20040;-58
2021/12/08 03:25:54;;;;;;;6.60;3.72;;;;;;;;;;5071585;28;20075;-58
2021/12/08 03:28:25;;;;;;;6.22;3.55;;;;;;;;;;5071904;28;20044;-58
2021/12/08 03:31:06;;;;;;;8.35;4.60;;;;;;;;;;5070292;28;20044;-57
2021/12/08 03:33:32;;;;;;;6.00;3.75;;;;;;;;;;5070143;28;20127;-58
2021/12/08 03:35:58;;;;;;;6.93;3.15;;;;;;;;;;5071351;28;20433;-58
2021/12/08 03:38:25;;;;;;;7.25;3.90;;;;;;;;;;5070439;28;20306;-58
2021/12/08 03:40:51;;;;;;;8.80;4.18;;;;;;;;;;5071381;28;20510;-57
2021/12/08 03:43:18;;;;;;;7.30;4.50;;;;;;;;;;5071713;28;20115;-58
2021/12/08 03:45:47;;;;;;;10.82;4.65;;;;;;;;;;5071187;28;20586;-57
2021/12/08 03:48:19;;;;;;;7.13;4.32;;;;;;;;;;5070779;28;20041;-58
2021/12/08 03:50:45;;;;;;;9.87;4.53;;;;;;;;;;5070976;28;20047;-58
2021/12/08 03:53:13;;;;;;;9.93;4.82;;;;;;;;;;5071386;28;20163;-57
2021/12/08 03:55:42;;;;;;;11.90;4.38;;;;;;;;;;5071114;28;20044;-57
2021/12/08 03:58:08;;;;;;;10.45;4.25;;;;;;;;;;5071131;28;20139;-58
2021/12/08 04:00:34;;;;;;;5.60;4.28;;;;;;;;;;5071131;28;20041;-58
2021/12/08 04:03:04;;;;;;;5.57;4.22;;;;;;;;;;5070951;28;20032;-57
2021/12/08 04:08:18;;;;;;;5.88;3.92;;;;;;;;;;5066199;28;20167;-57
2021/12/08 04:10:46;;;;;;;6.88;4.55;;;;;;;;;;5070331;28;20130;-58
2021/12/08 04:13:13;;;;;;;7.03;4.70;;;;;;;;;;5070625;28;20054;-57
2021/12/08 04:15:39;;;;;;;6.88;4.45;;;;;;;;;;5069599;28;20388;-58
2021/12/08 04:18:05;;;;;;;7.43;4.47;;;;;;;;;;5070373;28;20372;-58
2021/12/08 04:20:36;;;;;;;7.53;4.70;;;;;;;;;;5069581;28;20044;-58
2021/12/08 04:23:03;;;;;;;10.85;4.63;;;;;;;;;;5070026;28;20039;-57
2021/12/08 04:25:32;;;;;;;5.65;3.92;;;;;;;;;;5066450;28;20043;-56
2021/12/08 04:27:59;;;;;;;10.90;4.60;;;;;;;;;;5070368;28;20047;-57
2021/12/08 04:30:52;;;;;;;5.78;4.70;;;;;;;;;;5070845;28;20115;-57
2021/12/08 04:33:18;;;;;;;8.13;4.47;;;;;;;;;;5062839;28;21240;-56
2021/12/08 04:35:48;;;;;;;4.55;3.42;;;;;;;;;;5070218;28;20063;-58
2021/12/08 04:38:21;;;;;;;9.07;3.95;;;;;;;;;;5070031;28;20403;-57
2021/12/08 04:43:22;;;;;;;7.75;4.55;;;;;;;;;;5069651;28;20101;-58
2021/12/08 04:51:43;;;;;;;5.82;4.10;;;;;;;;;;5070066;28;20491;-57
2021/12/08 05:05:22;;;;;;;7.43;4.40;;;;;;;;;;5069426;28;20499;-57
2021/12/08 05:08:11;;;;;;;5.43;4.00;;;;;;;;;;5070337;28;20041;-57
2021/12/08 05:10:37;;;;;;;7.43;3.67;;;;;;;;;;5069654;28;21296;-57
2021/12/08 05:13:05;;;;;;;9.30;3.60;;;;;;;;;;5069394;28;20403;-58
2021/12/08 05:15:42;;;;;;;5.88;3.55;;;;;;;;;;5069715;28;20466;-57
2021/12/08 05:18:16;;;;;;;5.75;3.53;;;;;;;;;;5069432;28;20471;-57
2021/12/08 05:20:48;;;;;;;7.05;3.55;;;;;;;;;;5069102;28;20040;-57
2021/12/08 05:23:18;;;;;;;5.65;4.05;;;;;;;;;;5069313;28;20041;-57
2021/12/08 05:25:46;;;;;;;7.72;3.80;;;;;;;;;;5069510;28;20044;-57
2021/12/08 05:28:13;;;;;;;4.82;3.50;;;;;;;;;;5069462;28;20430;-58
2021/12/08 05:30:43;;;;;;;8.05;3.72;;;;;;;;;;5068330;28;20075;-57
2021/12/08 05:33:10;;;;;;;7.65;3.90;;;;;;;;;;5069825;28;20083;-58
2021/12/08 05:35:36;;;;;;;6.40;4.03;;;;;;;;;;5068803;28;20041;-58
2021/12/08 05:38:04;;;;;;;6.47;3.70;;;;;;;;;;5069737;28;20498;-58
2021/12/08 05:40:32;;;;;;;7.38;4.47;;;;;;;;;;5069234;28;20032;-58
2021/12/08 05:42:58;;;;;;;7.78;3.78;;;;;;;;;;5069407;28;20413;-57
2021/12/08 05:45:25;;;;;;;9.18;3.78;;;;;;;;;;5069823;28;20040;-57
2021/12/08 05:47:52;;;;;;;7.65;3.65;;;;;;;;;;5069491;28;20475;-57
2021/12/08 05:50:24;;;;;;;7.40;3.53;;;;;;;;;;5069551;28;20032;-57
2021/12/08 05:52:53;;;;;;;7.70;3.80;;;;;;;;;;5068904;28;20033;-57
2021/12/08 05:55:19;;;;;;;4.85;3.30;;;;;;;;;;5069312;28;20051;-57
2021/12/08 05:57:45;;;;;;;4.90;3.03;;;;;;;;;;5069146;28;20067;-58
2021/12/08 06:00:31;;;;;;;7.13;3.70;;;;;;;;;;5067612;28;20051;-57
2021/12/08 06:02:57;;;;;;;9.65;3.00;;;;;;;;;;5069347;28;20139;-58
2021/12/08 06:05:24;;;;;;;5.18;3.30;;;;;;;;;;5068276;28;20041;-57
2021/12/08 06:07:50;;;;;;;6.60;3.08;;;;;;;;;;5069175;28;20086;-57
2021/12/08 06:10:19;;;;;;;6.22;3.00;;;;;;;;;;5069573;28;20459;-58
2021/12/08 06:12:45;;;;;;;8.30;3.25;;;;;;;;;;5072527;28;20052;-57
2021/12/08 06:15:13;;;;;;;6.07;2.90;;;;;;;;;;5072856;28;20048;-58
2021/12/08 06:17:39;;;;;;;9.05;3.03;;;;;;;;;;5072169;28;20044;-57
2021/12/08 06:20:07;;;;;;;5.78;3.10;;;;;;;;;;5066973;28;20040;-58
2021/12/08 06:22:33;;;;;;;5.00;3.28;;;;;;;;;;5072014;28;20075;-58
2021/12/08 06:24:59;;;;;;;8.05;2.55;;;;;;;;;;5072040;28;20040;-57
2021/12/08 06:27:25;;;;;;;4.50;2.90;;;;;;;;;;5071874;28;20434;-58
2021/12/08 06:29:51;;;;;;;5.53;2.70;;;;;;;;;;5071551;28;20046;-58
2021/12/08 06:32:18;;;;;;;6.85;3.00;;;;;;;;;;5072068;28;20131;-58
2021/12/08 06:34:46;;;;;;;4.90;2.72;;;;;;;;;;5071530;28;20041;-67
2021/12/08 06:37:14;;;;;;;8.70;3.15;;;;;;;;;;5066674;28;20032;-57
2021/12/08 06:39:45;;;;;;;5.40;2.72;;;;;;;;;;5072455;28;20563;-57
2021/12/08 06:42:14;;;;;;;5.13;2.67;;;;;;;;;;5072143;28;20071;-58
2021/12/08 06:44:41;;;;;;;9.10;2.70;;;;;;;;;;5072435;28;20272;-57
2021/12/08 06:47:09;;;;;;;5.85;2.40;;;;;;;;;;5072061;28;20047;-57
2021/12/08 06:49:35;;;;;;;4.00;2.05;;;;;;;;;;5072337;28;20519;-58
2021/12/08 06:52:17;;;;;;;7.10;2.60;;;;;;;;;;5070712;28;20051;-58
2021/12/08 06:54:58;;;;;;;5.50;2.37;;;;;;;;;;5071701;28;20048;-57
2021/12/08 06:57:30;;;;;;;6.07;2.33;;;;;;;;;;5068695;28;20128;-59
2021/12/08 07:00:18;;;;;;;6.38;2.70;;;;;;;;;;5071936;28;20036;-58
2021/12/08 07:05:25;;;;;;;5.22;2.40;;;;;;;;;;5072206;28;20051;-58
2021/12/08 07:07:51;;;;;;;4.32;2.28;;;;;;;;;;5071170;28;20056;-58
2021/12/08 07:10:21;;;;;;;5.93;2.20;;;;;;;;;;5070904;28;20342;-59
2021/12/08 07:12:50;;;;;;;5.97;2.42;;;;;;;;;;5070341;28;20506;-58
2021/12/08 07:15:23;;;;;;;7.07;2.33;;;;;;;;;;5071208;28;20040;-58
2021/12/08 07:17:54;;;;;;;9.15;2.30;;;;;;;;;;5071246;28;20040;-58
2021/12/08 07:20:47;;;;;;;5.57;2.08;;;;;;;;;;5070258;28;20032;-58
2021/12/08 07:23:17;;;;;;;4.68;2.05;;;;;;;;;;5070404;28;20041;-58
2021/12/08 07:25:43;;;;;;;8.38;2.33;;;;;;;;;;5072059;28;20032;-58
2021/12/08 07:28:10;;;;;;;4.55;2.08;;;;;;;;;;5070236;28;20076;-59
2021/12/08 07:30:38;;;;;;;5.85;2.45;;;;;;;;;;5071809;28;20044;-58
2021/12/08 07:33:04;;;;;;;6.07;2.00;;;;;;;;;;5071092;28;20429;-58
2021/12/08 07:35:35;;;;;;;7.22;2.15;;;;;;;;;;5071532;28;20131;-58
2021/12/08 07:38:01;;;;;;;5.75;2.15;;;;;;;;;;5071650;28;20080;-58
2021/12/08 07:40:30;;;;;;;8.13;2.10;;;;;;;;;;5071139;28;20509;-58
2021/12/08 07:42:59;;;;;;;7.53;2.22;;;;;;;;;;5071267;28;20517;-58
2021/12/08 07:45:30;;;;;;;8.02;2.00;;;;;;;;;;5071139;28;20044;-58
2021/12/08 07:47:56;;;;;;;6.47;1.92;;;;;;;;;;5071431;28;20047;-59
2021/12/08 07:50:27;;;;;;;8.85;2.10;;;;;;;;;;5071167;28;20036;-58
2021/12/08 07:52:54;;;;;;;6.25;2.20;;;;;;;;;;5069030;28;20043;-58
2021/12/08 07:55:25;;;;;;;7.72;2.30;;;;;;;;;;5070172;28;20040;-57
2021/12/08 07:57:52;;;;;;;8.35;2.10;;;;;;;;;;5070710;28;20115;-58
2021/12/08 08:00:23;;;;;;;9.82;2.58;;;;;;;;;;5071081;28;20033;-58
2021/12/08 08:02:49;;;;;;;5.72;1.98;;;;;;;;;;5070092;28;20093;-58
2021/12/08 08:05:17;;;;;;;5.85;1.70;;;;;;;;;;5070887;28;20490;-58
2021/12/08 08:07:44;;;;;;;5.05;2.10;;;;;;;;;;5070684;28;20048;-58
2021/12/08 08:10:14;;;;;;;5.25;1.90;;;;;;;;;;5071110;28;20415;-57
2021/12/08 08:12:41;;;;;;;4.75;1.77;;;;;;;;;;5070062;28;20057;-58
2021/12/08 08:15:10;;;;;;;5.10;1.73;;;;;;;;;;5070233;28;20044;-58
2021/12/08 08:17:41;;;;;;;4.72;1.70;;;;;;;;;;5070470;28;20032;-58
2021/12/08 08:20:10;;;;;;;5.05;1.55;;;;;;;;;;5070969;28;20093;-58
2021/12/08 08:22:36;;;;;;;7.07;1.83;;;;;;;;;;5069347;28;20071;-58
2021/12/08 08:25:04;;;;;;;7.03;1.65;;;;;;;;;;5064314;28;20372;-58
2021/12/08 08:27:30;;;;;;;6.28;1.60;;;;;;;;;;5068445;28;20044;-67
2021/12/08 08:29:57;;;;;;;6.47;1.85;;;;;;;;;;5069180;28;20036;-58
2021/12/08 08:32:30;;;;;;;5.05;1.70;;;;;;;;;;5070265;28;20119;-58
2021/12/08 08:35:00;;;;;;;7.07;1.77;;;;;;;;;;5069779;28;20119;-58
2021/12/08 08:37:26;;;;;;;5.28;1.40;;;;;;;;;;5069675;28;20051;-59
2021/12/08 08:39:58;;;;;;;9.75;2.00;;;;;;;;;;5070470;28;20043;-59
2021/12/08 08:42:38;;;;;;;7.00;1.40;;;;;;;;;;5070262;28;20108;-58
2021/12/08 08:45:04;;;;;;;7.65;1.77;;;;;;;;;;5070693;28;20722;-59
2021/12/08 08:47:32;;;;;;;10.38;1.65;;;;;;;;;;5069859;28;20049;-59
2021/12/08 08:49:59;;;;;;;9.07;1.65;;;;;;;;;;5070061;28;20169;-59
2021/12/08 08:52:25;;;;;;;5.05;1.45;;;;;;;;;;5070373;28;20045;-58
2021/12/08 08:54:53;;;;;;;10.75;2.28;;;;;;;;;;5069707;28;20041;-58
2021/12/08 08:57:24;;;;;;;6.32;1.45;;;;;;;;;;5069978;28;20036;-58
2021/12/08 08:59:56;;;;;;;9.13;1.77;;;;;;;;;;5069134;28;20388;-57
2021/12/08 09:02:24;;;;;;;5.20;1.57;;;;;;;;;;5070563;28;20037;-59
2021/12/08 09:04:53;;;;;;;8.00;2.15;;;;;;;;;;5069003;28;20310;-58
2021/12/08 09:07:22;;;;;;;6.85;1.70;;;;;;;;;;5070737;28;20037;-58
2021/12/08 09:09:49;;;;;;;5.35;1.40;;;;;;;;;;5069086;28;20123;-59
2021/12/08 09:12:21;;;;;;;8.38;1.70;;;;;;;;;;5070110;28;20048;-58
2021/12/08 09:14:53;;;;;;;9.82;1.80;;;;;;;;;;5069902;28;20403;-58
2021/12/08 09:17:24;;;;;;;7.35;1.48;;;;;;;;;;5070538;28;20087;-58
2021/12/08 09:19:55;;;;;;;11.63;1.33;;;;;;;;;;5069283;28;20665;-58
2021/12/08 09:22:26;;;;;;;5.97;1.83;;;;;;;;;;5069976;28;20040;-59
2021/12/08 09:24:53;;;;;;;7.63;2.00;;;;;;;;;;5069794;28;20130;-59
2021/12/08 09:27:22;;;;;;;10.07;2.35;;;;;;;;;;5069606;28;20040;-58
2021/12/08 09:29:55;;;;;;;8.90;2.00;;;;;;;;;;5069940;28;20043;-59
2021/12/08 09:32:31;;;;;;;9.27;1.90;;;;;;;;;;5069917;28;20052;-59
2021/12/08 09:34:58;;;;;;;7.13;1.80;;;;;;;;;;5067862;28;20105;-58
2021/12/08 09:37:46;;;;;;;5.75;1.75;;;;;;;;;;5069779;28;20098;-59
2021/12/08 09:40:26;;;;;;;8.93;1.70;;;;;;;;;;5068755;28;20128;-58
2021/12/08 09:42:54;;;;;;;8.55;2.33;;;;;;;;;;5064632;28;20387;-58
2021/12/08 09:45:31;;;;;;;7.45;1.55;;;;;;;;;;5071215;28;20072;-58
2021/12/08 09:47:57;;;;;;;6.13;1.40;;;;;;;;;;5073724;28;20067;-59
2021/12/08 09:50:23;;;;;;;7.85;1.65;;;;;;;;;;5070809;28;20426;-58
2021/12/08 09:52:49;;;;;;;6.43;1.88;;;;;;;;;;5073925;28;20028;-58
2021/12/08 09:55:17;;;;;;;5.90;1.60;;;;;;;;;;5072795;28;20041;-58
2021/12/08 09:57:43;;;;;;;7.47;1.48;;;;;;;;;;5073715;28;20090;-58
2021/12/08 10:00:11;;;;;;;6.43;1.25;;;;;;;;;;5073487;28;20040;-58
2021/12/08 10:02:38;;;;;;;9.18;1.75;;;;;;;;;;5073698;28;20446;-58
2021/12/08 10:05:15;;;;;;;4.50;1.58;;;;;;;;;;5073309;28;20040;-58
2021/12/08 10:07:42;;;;;;;9.18;1.58;;;;;;;;;;5073350;28;20051;-58
2021/12/08 10:10:10;;;;;;;8.75;1.98;;;;;;;;;;5072759;28;20391;-58
2021/12/08 10:12:37;;;;;;;10.73;2.17;;;;;;;;;;5068278;28;20056;-58
2021/12/08 10:15:04;;;;;;;7.53;1.60;;;;;;;;;;5072354;28;20105;-58
2021/12/08 10:17:30;;;;;;;8.70;1.80;;;;;;;;;;5072712;28;20505;-57
2021/12/08 10:20:15;;;;;;;6.70;1.60;;;7.30;99.90;;;;;;5071984;28;20048;-58
2021/12/08 10:22:42;;;;;;;9.45;1.70;;;;;;;;;;5073370;28;20035;-58
2021/12/08 10:25:14;;;;;;;8.95;2.03;;;;;;;;;;5073126;28;20052;-58
2021/12/08 10:27:59;;;;;;;6.50;1.70;;;;;;;;;;5071977;28;20044;-58
2021/12/08 10:30:25;;;;;;;4.50;1.70;;;;;;;;;;5072208;28;20070;-58
2021/12/08 10:32:53;;;;;;;8.23;1.67;;;;;;;;;;5072952;28;20129;-58
2021/12/08 10:35:48;;;;;;;7.65;1.50;;;7.70;99.90;;;;;;5071442;28;20105;-58
2021/12/08 10:38:16;;;;;;;6.10;2.47;;;;;;;;;;5072621;28;20032;-58
2021/12/08 10:41:04;;;;;;;8.80;1.42;;;7.90;99.90;;;;;;5072230;28;20036;-58
2021/12/08 10:43:30;;;;;;;7.85;1.92;;;;;;;;;;5072483;28;20128;-57
2021/12/08 10:46:04;;;;;;;8.75;1.63;;;;;;;;;;5072605;28;20111;-58
2021/12/08 10:48:37;;;;;;;10.48;2.35;;;;;;;;;;5072530;28;20090;-58
2021/12/08 10:56:37;;;;;;;8.32;2.08;;;;;;;;;;5070488;28;20036;-58
2021/12/08 10:59:03;;;;;;;8.63;1.92;;;;;;;;;;5072114;28;20060;-58
2021/12/08 11:01:29;;;;;;;7.28;1.95;;;;;;;;;;5072233;28;20063;-57
2021/12/08 11:04:00;;;;;;;9.85;2.35;;;;;;;;;;5072724;28;20095;-58
2021/12/08 11:06:29;;;;;;;8.30;1.52;;;;;;;;;;5072510;28;20047;-58
2021/12/08 11:08:56;;;;;;;7.78;2.00;;;;;;;;;;5072199;28;20037;-57
2021/12/08 11:11:29;;;;;;;6.05;1.42;;;;;;;;;;5071100;28;20062;-58
2021/12/08 11:13:59;;;;;;;6.47;1.58;;;;;;;;;;5071749;28;20080;-57
2021/12/08 11:16:44;;;;;;;7.15;1.50;;;;;;;;;;5072067;28;20404;-57
2021/12/08 11:19:10;;;;;;;9.82;2.35;;;;;;;;;;5071120;28;20468;-58
2021/12/08 11:21:48;;;;;;;8.30;1.42;;;;;;;;;;5071939;28;20119;-58
2021/12/08 11:24:35;;;;;;;7.22;1.63;;;;;;;;;;5066783;28;20094;-58
2021/12/08 11:27:03;;;;;;;7.63;1.58;;;;;;;;;;5072184;28;20048;-57
2021/12/08 11:29:31;;;;;;;6.68;1.88;;;;;;;;;;5072079;28;20044;-58
2021/12/08 11:31:59;;;;;;;5.70;1.20;;;;;;;;;;5071554;28;20062;-58
2021/12/08 11:34:27;;;;;;;8.70;2.10;;;;;;;;;;5070215;28;20048;-59
2021/12/08 11:36:54;;;;;;;7.35;2.38;;;;;;;;;;5069794;28;20045;-57
2021/12/08 11:39:27;;;;;;;7.22;1.50;;;;;;;;;;5072258;28;20066;-58
2021/12/08 11:41:56;;;;;;;9.45;1.60;;;;;;;;;;5071502;28;20040;-57
2021/12/08 11:44:24;;;;;;;10.15;2.10;;;;;;;;;;5071517;28;20040;-57
2021/12/08 11:46:51;;;;;;;6.78;1.60;;;;;;;;;;5070201;28;20047;-57
2021/12/08 11:49:18;;;;;;;9.15;1.95;;;;;;;;;;5071871;28;20036;-57
2021/12/08 11:51:44;;;;;;;8.15;1.65;;;;;;;;;;5071485;28;20051;-57
2021/12/08 11:54:31;;;;;;;10.48;1.90;;;;;;;;;;5071211;28;20036;-58
2021/12/08 11:57:08;;;;;;;8.48;1.98;;;;;;;;;;5071377;28;20035;-57
2021/12/08 11:59:34;;;;;;;8.15;1.98;;;;;;;;;;5067194;28;20110;-57
2021/12/08 12:02:02;;;;;;;6.70;2.33;;;;;;;;;;5069215;28;20044;-58
2021/12/08 12:04:28;;;;;;;9.75;2.30;;;;;;;;;;5070836;28;20032;-57
2021/12/08 12:06:54;;;;;;;11.65;2.80;;;;;;;;;;5071054;28;20420;-57
2021/12/08 12:09:20;;;;;;;4.15;1.67;;;;;;;;;;5069170;28;20052;-57
2021/12/08 12:11:48;;;;;;;5.50;1.95;;;;;;;;;;5071081;28;20061;-57
2021/12/08 12:14:14;;;;;;;9.13;2.75;;;;;;;;;;5069983;28;20096;-57
2021/12/08 12:16:40;;;;;;;6.63;1.90;;;;;;;;;;5069444;28;20380;-58
2021/12/08 12:19:07;;;;;;;6.55;1.88;;;;;;;;;;5070195;28;20453;-57
2021/12/08 12:21:52;;;;;;;5.72;2.60;;;;;;;;;;5070938;28;20360;-57
2021/12/08 12:24:33;;;;;;;9.30;2.63;;;;;;;;;;5070090;28;20119;-58
2021/12/08 12:27:26;;;;;;;7.90;2.30;;;6.20;99.90;;;;;;5071203;28;20372;-57
2021/12/08 12:29:58;;;;;;;6.82;2.10;;;;;;;;;;5128323;27;20444;-56
2021/12/08 12:32:38;;;;;;;7.43;2.30;;;;;;;;;;5129066;27;20043;-58
2021/12/08 12:35:14;;;;;;;6.35;2.05;;;;;;;;;;5145306;27;20554;-72
2021/12/08 12:37:41;;;;;;;5.13;1.98;;;;;;;;;;5133707;27;20130;-56
2021/12/08 12:40:09;;;;;;;6.03;2.40;;;;;;;;;;5127596;27;20493;-65
2021/12/08 12:42:43;;;;;;;4.13;1.77;;;;;;;;;;5127652;27;20039;-60
2021/12/08 12:45:12;;;;;;;7.45;1.90;;;;;;;;;;5135422;27;20122;-58
2021/12/08 12:47:38;;;;;;;8.60;2.00;;;;;;;;;;5127781;27;20043;-58
2021/12/08 12:50:04;;;;;;;7.82;2.03;;;;;;;;;;5127892;27;20398;-57
2021/12/08 12:52:42;;;;;;;7.43;2.00;;;;;;;;;;5128012;27;20132;-58
2021/12/08 12:55:10;;;;;;;9.30;2.10;;;;;;;;;;5128039;27;20452;-58
2021/12/08 12:57:54;;;;;;;8.73;1.70;;;;;;;;;;5127637;27;20035;-58
2021/12/08 13:00:28;;;;;;;3.03;1.50;;;;;;;;;;5126592;27;20039;-58
2021/12/08 13:02:54;;;;;;;8.07;1.80;;;;;;;;;;5128133;27;20039;-58
2021/12/08 13:05:20;;;;;;;6.68;1.83;;;;;;;;;;5128699;27;20067;-58
2021/12/08 13:07:56;;;;;;;5.88;1.60;;;;;;;;;;5137904;27;20035;-58
2021/12/08 13:10:29;;;;;;;6.47;1.80;;;;;;;;;;5145218;27;20389;-58
2021/12/08 13:13:09;;;;;;;5.60;1.92;;;;;;;;;;5126167;27;20100;-59
2021/12/08 13:15:35;;;;;;;8.32;2.25;;;;;;;;;;5126684;27;20393;-59
2021/12/08 13:18:01;;;;;;;9.50;1.85;;;;;;;;;;5127005;27;20047;-59
2021/12/08 13:20:28;;;;;;;7.00;1.73;;;;;;;;;;5132642;27;20045;-58
2021/12/08 13:22:55;;;;;;;5.70;1.73;;;;;;;;;;5133555;27;20549;-58
2021/12/08 13:28:36;;;;;;;8.38;2.45;;;6.50;99.90;;;;;;5127272;27;20112;-58
2021/12/08 13:31:08;;;;;;;7.05;1.60;;;;;;;;;;5141813;27;20438;-58
2021/12/08 13:33:44;;;;;;;5.47;1.80;;;;;;;;;;5126306;27;20045;-58
2021/12/08 13:36:23;;;;;;;7.50;2.67;;;;;;;;;;5126671;27;20576;-59
2021/12/08 13:38:59;;;;;;;6.82;2.03;;;;;;;;;;5139148;27;20121;-58
2021/12/08 13:41:32;;;;;;;7.50;2.10;;;;;;;;;;5134218;27;20081;-59
2021/12/08 13:44:01;;;;;;;6.72;1.90;;;;;;;;;;5121522;27;20379;-58
2021/12/08 13:46:41;;;;;;;5.90;2.05;;;;;;;;;;5113814;28;20040;-57
2021/12/08 13:49:10;;;;;;;5.93;1.85;;;;;;;;;;5102239;28;20040;-58
2021/12/08 13:51:36;;;;;;;8.75;1.90;;;;;;;;;;5112648;28;20032;-58
2021/12/08 13:54:29;;;;;;;13.20;1.92;;;6.50;99.90;;;;;;5113022;28;20039;-59
2021/12/08 13:56:56;;;;;;;3.42;1.50;;;;;;;;;;5133850;27;20090;-58
2021/12/08 13:59:51;;;;;;;6.07;1.92;;;6.70;99.90;;;;;;5132891;27;20043;-58
2021/12/08 14:02:21;;;;;;;6.80;2.30;;;;;;;;;;5134132;27;20535;-58
2021/12/08 14:04:47;;;;;;;6.10;1.88;;;;;;;;;;5125750;27;20043;-63
2021/12/08 14:07:20;;;;;;;3.72;1.65;;;;;;;;;;5113207;28;20050;-60
2021/12/08 14:09:46;;;;;;;8.75;1.92;;;;;;;;;;5112785;28;20088;-57
2021/12/08 14:12:12;;;;;;;6.95;1.90;;;;;;;;;;5113549;28;20089;-58
2021/12/08 14:14:38;;;;;;;6.85;1.50;;;;;;;;;;5112661;28;20046;-58
2021/12/08 14:17:04;;;;;;;5.95;1.60;;;;;;;;;;5113750;27;20035;-58
2021/12/08 14:19:39;;;;;;;5.38;1.73;;;;;;;;;;5112478;28;20089;-58
2021/12/08 14:22:05;;;;;;;6.05;1.80;;;;;;;;;;5117595;27;20035;-58
2021/12/08 14:24:32;;;;;;;6.47;1.60;;;;;;;;;;5123947;27;20074;-58
2021/12/08 14:26:58;;;;;;;3.63;1.45;;;;;;;;;;5110584;28;20043;-59
2021/12/08 14:29:24;;;;;;;8.95;1.70;;;;;;;;;;5112363;28;20055;-58
2021/12/08 14:31:57;;;;;;;8.25;1.95;;;;;;;;;;5112218;28;20074;-58
2021/12/08 14:34:23;;;;;;;5.10;1.55;;;;;;;;;;5113029;28;20115;-58
2021/12/08 14:36:57;;;;;;;5.93;1.42;;;;;;;;;;5112328;28;20636;-59
2021/12/08 14:39:24;;;;;;;5.00;1.50;;;;;;;;;;5112369;28;20536;-58
2021/12/08 14:41:53;;;;;;;6.57;1.52;;;;;;;;;;5111571;28;20036;-59
2021/12/08 14:44:21;;;;;;;5.13;1.42;;;;;;;;;;5124664;27;20052;-60
2021/12/08 14:46:59;;;;;;;8.38;1.80;;;;;;;;;;5112962;27;20031;-58
2021/12/08 14:49:29;;;;;;;6.35;1.55;;;;;;;;;;5115738;27;20036;-58
2021/12/08 14:51:56;;;;;;;6.38;1.58;;;;;;;;;;5110313;28;20067;-59
2021/12/08 14:54:23;;;;;;;8.23;2.78;;;;;;;;;;5104943;28;20046;-58
2021/12/08 14:57:02;;;;;;;4.20;1.73;;;;;;;;;;5111408;28;20040;-57
2021/12/08 14:59:29;;;;;;;4.25;1.55;;;;;;;;;;5107042;28;20049;-58
2021/12/08 15:01:55;;;;;;;5.93;1.50;;;;;;;;;;5110975;28;20067;-62
2021/12/08 15:04:21;;;;;;;6.63;1.40;;;;;;;;;;5111338;28;20044;-63
2021/12/08 15:06:55;;;;;;;3.40;1.30;;;;;;;;;;5111436;28;20039;-63
2021/12/08 15:09:25;;;;;;;5.28;1.60;;;;;;;;;;5111741;28;20490;-62
2021/12/08 15:11:51;;;;;;;5.90;1.40;;;;;;;;;;5111602;28;20448;-62
2021/12/08 15:14:17;;;;;;;7.22;1.63;;;;;;;;;;5110890;28;20039;-63
2021/12/08 15:16:48;;;;;;;7.03;1.40;;;;;;;;;;5111871;28;20028;-63
2021/12/08 15:19:14;;;;;;;5.03;1.55;;;;;;;;;;5111244;28;20432;-62
2021/12/08 15:21:42;;;;;;;4.40;1.55;;;;;;;;;;5111427;28;20035;-61
2021/12/08 15:24:10;;;;;;;4.80;1.50;;;;;;;;;;5111009;28;20046;-60
2021/12/08 15:26:36;;;;;;;6.57;1.70;;;;;;;;;;5125031;27;20036;-60
2021/12/08 15:29:04;;;;;;;5.97;2.38;;;;;;;;;;5111219;28;20432;-62
2021/12/08 15:31:33;;;;;;;7.40;1.83;;;;;;;;;;5111371;28;20496;-61
2021/12/08 15:33:59;;;;;;;7.22;1.48;;;;;;;;;;5111169;28;20104;-61
2021/12/08 15:36:30;;;;;;;7.18;1.83;;;;;;;;;;5108625;27;20042;-61
2021/12/08 15:38:57;;;;;;;4.80;1.65;;;;;;;;;;5110855;28;20051;-60
2021/12/08 15:41:31;;;;;;;4.40;1.60;;;;;;;;;;5111092;28;20367;-60
2021/12/08 15:44:11;;;;;;;3.78;1.48;;;;;;;;;;5111466;27;20122;-61
2021/12/08 15:46:38;;;;;;;4.50;1.42;;;;;;;;;;5110607;28;20459;-61
2021/12/08 15:49:05;;;;;;;3.92;1.40;;;;;;;;;;5110929;28;20107;-61